Veedum, Wisconsin
Current Conditions -  °F | °C
As of 5:54 PM on Friday 21 Nov 2014 (Local Time) from KMFI Reporting Station
Clear Clear  
Wind Chill: 12°   Ceiling: Unl
Heat Index: 24°   Visibility: 10mi
Dew Point:   Wind: 13mph
Humidity: 51%   Direction: 180°S
Pressure: 30.08"   Gusts: NA
Location:  44.4101°N, 90.2968°W
Report Text: KMFI 212354Z AUTO 18011KT 10SM CLR M04/M13 A3008 RMK AO2 SLP215 T10441133 11033 21061 58019
Loading
Personal Weather Stations






























Interactive Weather Map New forecast layout! Learn more

10-Day Weather Forecast

Advertisements
Track Severe Weather on mobile